UNNT/OVB METAR and TAF weather

Enter ICAO airport designator
Station Type Date Time Source
UNNT METAR 2019/07/20 05:00 UTC NOAA

UNNT 200500Z 33002MPS 280V020 9999 SCT040 25/20 Q1008 R25/090070 R16/090070 NOSIG RMK QFE746/0995


Station Type Date Time Source
UNNT Decoded METAR 2019/07/20 05:00 UTC NOAA

Station name not available
Jul 20, 2019 - 01:00 AM EDT / 2019.07.20 0500 UTC
Wind: from the NNW (330 degrees) at 4 MPH (4 KT) (direction variable):0
Visibility: greater than 7 mile(s):0
Sky conditions: partly cloudy
Temperature: 77 F (25 C)
Dew Point: 68 F (20 C)
Relative Humidity: 73%
Pressure (altimeter): 29.77 in. Hg (1008 hPa)
ob: UNNT 200500Z 33002MPS 280V020 9999 SCT040 25/20 Q1008 R25/090070 R16/090070 NOSIG RMK QFE746/0995
cycle: 5

Station Type Date Time Source
UNNT TAF 2019/07/20 04:15 UTC NOAA

TAF
AMD TAF
AMD UNNT 200411Z 2004/2103 02003G09MPS 9999 BKN040CB
TEMPO 2005/2018 3100 -TSRA BKN011CB
TEMPO 2018/2103 3100 -SHRA BR BKN011CB

Example: see airport list